Πλησιέστερες Αναφορές METAR

 

LGTS - Thessaloniki/Makedonia-Elev 7m
Απόσταση από σταθμό: Ν 13km
Ενημερώθηκε: 15/07/2024 12:20
Αίθριος
Αίθριος
 Ανεμοι από Δ
Ανεμος: Δ 15 km/h
Θερμοκρασία: 33°C
Δείκτης Δυσφορίας: 35°C
Σημείο Δρόσου: 20°C
Υγρασία: 46%
Βαρόμετρο: 1010 hPa
Περίληψη: Αίθριος
Ορατότητα: πάνω από 10 km
2024/07/15 09:20 LGTS 150920Z 27008KT CAVOK 33/20 Q1010 NOSIG
LGAV - Athens/Elef. Venizelos-Elev 94m
Απόσταση από σταθμό: ΝΝΑ 312km
Ενημερώθηκε: 15/07/2024 12:20
Αίθριος
Αίθριος
 Ανεμοι από ΒΑ
Ανεμος: ΒΑ 35 km/h
Θερμοκρασία: 32°C
Σημείο Δρόσου: 8°C
Υγρασία: 22%
Βαρόμετρο: 1010 hPa
Περίληψη: Αίθριος
Ορατότητα: πάνω από 10 km
2024/07/15 09:20 LGAV 150920Z 04019KT CAVOK 32/08 Q1010 NOSIG
 
LGAL - Alexandroupolis-Elev 3m
Απόσταση από σταθμό: Α 251km
Ενημερώθηκε: 15/07/2024 12:20
Αίθριος
Αίθριος
 Ανεμοι από ΒΑ
Ανεμος: ΒΑ 20 km/h
Θερμοκρασία: 35°C
Σημείο Δρόσου: 9°C
Υγρασία: 20%
Βαρόμετρο: 1010 hPa
Περίληψη: Αίθριος
Ορατότητα: πάνω από 10 km
2024/07/15 09:20 LGAL 150920Z 05011KT CAVOK 35/09 Q1010
LGKV - Kavala/Crysoupolis-Elev 5m
Απόσταση από σταθμό: ΑΒΑ 144km
Ενημερώθηκε: 15/07/2024 12:20
Αίθριος
Αίθριος
 Ανεμοι από Ν
Ανεμος: Ν 13 km/h
Θερμοκρασία: 32°C
Σημείο Δρόσου: 15°C
Υγρασία: 36%
Βαρόμετρο: 1011 hPa
Περίληψη: Αίθριος
Ορατότητα: πάνω από 10 km
2024/07/15 09:20 LGKV 150920Z 17007KT CAVOK 32/15 Q1011
 
LGSK - Skiathos Island-Elev 15m
Απόσταση από σταθμό: ΝΝΑ 168km
Ενημερώθηκε: 15/07/2024 12:20
Αίθριος
Αίθριος
 Ανεμοι από Β
Ανεμος: Β 9 km/h
Θερμοκρασία: 31°C
Δείκτης Δυσφορίας: 34°C
Σημείο Δρόσου: 21°C
Υγρασία: 55%
Βαρόμετρο: 1011 hPa
Περίληψη: Αίθριος
Ορατότητα: πάνω από 10 km
2024/07/15 09:20 LGSK 150920Z 36005KT CAVOK 31/21 Q1011
LGLM - Limnos Island-Elev 5m
Απόσταση από σταθμό: ΑΝΑ 210km
Ενημερώθηκε: 15/07/2024 12:20
Αίθριος
Αίθριος
 Ανεμοι από ΒΑ
Ανεμος: ΒΑ 28 km/h
Θερμοκρασία: 29°C
Σημείο Δρόσου: 12°C
Υγρασία: 35%
Βαρόμετρο: 1010 hPa
Περίληψη: Αίθριος
Ορατότητα: πάνω από 10 km
2024/07/15 09:20 LGLM 150920Z 04015KT CAVOK 29/12 Q1010
 
LGMT - Mitilini Island-Elev 17m
Απόσταση από σταθμό: ΑΝΑ 358km
Ενημερώθηκε: 15/07/2024 12:20
Αίθριος
Αίθριος
 Ανεμοι από ΒΒΔ
Ανεμος: ΒΒΔ 22 km/h
Θερμοκρασία: 33°C
Σημείο Δρόσου: 16°C
Υγρασία: 36%
Βαρόμετρο: 1008 hPa
Περίληψη: Αίθριος
Ορατότητα: πάνω από 10 km
2024/07/15 09:20 LGMT 150920Z 34012KT 270V010 CAVOK 33/16 Q1008
LGSY - Skiros Island-Elev 15m
Απόσταση από σταθμό: ΝΑ 227km
Ενημερώθηκε: 15/07/2024 11:50
Αίθριος
Αίθριος
 Ανεμοι από Β
Ανεμος: Β 11 km/h
Θερμοκρασία: 28°C
Δείκτης Δυσφορίας: 29°C
Σημείο Δρόσου: 18°C
Υγρασία: 55%
Βαρόμετρο: 1010 hPa
Περίληψη: Αίθριος
Ορατότητα: πάνω από 10 km
2024/07/15 08:50 LGSY 150850Z 36006KT CAVOK 28/18 Q1010 BLU
 
LGKZ - Kozani-Elev 628m
Απόσταση από σταθμό: ΔΝΔ 102km
Ενημερώθηκε: 15/07/2024 11:50
Αίθριος
Αίθριος
 Ανεμοι από ΝΑ
Ανεμος: ΝΑ 9 km/h
Θερμοκρασία: 34°C
Σημείο Δρόσου: 8°C
Υγρασία: 20%
Βαρόμετρο: 1015 hPa
Περίληψη: Αίθριος
Ορατότητα: πάνω από 10 km
2024/07/15 08:50 LGKZ 150850Z 13005KT CAVOK 34/08 Q1015
LGIO - Ioannina-Elev 476m
Απόσταση από σταθμό: ΔΝΔ 209km
Ενημερώθηκε: 15/07/2024 12:20
Διάσπαρτα Νέφη
Διάσπαρτα Νέφη
 Ανεμοι από μεταβλητός
Ανεμος: μεταβλητός 6 km/h
Θερμοκρασία: 33°C
Δείκτης Δυσφορίας: 36°C
Σημείο Δρόσου: 21°C
Υγρασία: 49%
Βαρόμετρο: 1013 hPa
Νέφωση: Διάσπαρτα Νέφη
Ορατότητα: 10 km
Λεπτομέρειες Νεφών: Διάσπαρτα Νέφη 1372 m
2024/07/15 09:20 LGIO 150920Z VRB03KT 9999 FEW045 33/21 Q1013
 
LGZA - Zakinthos-Elev 3m
Απόσταση από σταθμό: ΝΝΔ 367km
Ενημερώθηκε: 15/07/2024 12:20
Αίθριος
Αίθριος
 Ανεμοι από μεταβλητός
Ανεμος: μεταβλητός 6 km/h
Θερμοκρασία: 34°C
Δείκτης Δυσφορίας: 37°C
Σημείο Δρόσου: 21°C
Υγρασία: 47%
Βαρόμετρο: 1009 hPa
Περίληψη: Αίθριος
Ορατότητα: πάνω από 10 km
2024/07/15 09:20 LGZA 150920Z VRB03KT CAVOK 34/21 Q1009
LGKR - Corfu Island-Elev 2m
Απόσταση από σταθμό: ΔΝΔ 282km
Ενημερώθηκε: 15/07/2024 12:20
Αίθριος
Αίθριος
 Ανεμοι από ΑΝΑ
Ανεμος: ΑΝΑ 11 km/h
Θερμοκρασία: 34°C
Δείκτης Δυσφορίας: 38°C
Σημείο Δρόσου: 22°C
Υγρασία: 49%
Βαρόμετρο: 1009 hPa
Περίληψη: Αίθριος
Ορατότητα: πάνω από 10 km
2024/07/15 09:20 LGKR 150920Z 12006KT CAVOK 34/22 Q1009 NOSIG
 
LGSO - Syros Island-Elev 72m
Απόσταση από σταθμό: ΝΝΑ 397km
Ενημερώθηκε: 15/07/2024 11:50
Αίθριος
Αίθριος
 Ανεμοι από Β
Ανεμος: Β 39 km/h
Θερμοκρασία: 28°C
Δείκτης Δυσφορίας: 28°C
Σημείο Δρόσου: 17°C
Υγρασία: 51%
Βαρόμετρο: 1008 hPa
Περίληψη: Αίθριος
Ορατότητα: πάνω από 10 km
2024/07/15 08:50 LGSO 150850Z 36021KT CAVOK 28/17 Q1008
LGMK - Mikonos Island-Elev 123m
Απόσταση από σταθμό: ΝΝΑ 412km
Ενημερώθηκε: 15/07/2024 12:20
Αίθριος
Αίθριος
 Ανεμοι από Β
Ανεμος: Β 44 km/h, Ριπή: 63 km/h
Θερμοκρασία: 28°C
Δείκτης Δυσφορίας: 28°C
Σημείο Δρόσου: 17°C
Υγρασία: 51%
Βαρόμετρο: 1006 hPa
Περίληψη: Αίθριος
Ορατότητα: πάνω από 10 km
2024/07/15 09:20 LGMK 150920Z 01024G34KT CAVOK 28/17 Q1006 WS R34
 
LGSR - Santorini Island-Elev 40m
Απόσταση από σταθμό: ΝΝΑ 520km
Ενημερώθηκε: 15/07/2024 12:20
Αίθριος
Αίθριος
 Ανεμοι από ΒΒΔ
Ανεμος: ΒΒΔ 28 km/h
Θερμοκρασία: 29°C
Δείκτης Δυσφορίας: 31°C
Σημείο Δρόσου: 20°C
Υγρασία: 58%
Βαρόμετρο: 1007 hPa
Περίληψη: Αίθριος
Ορατότητα: πάνω από 10 km
2024/07/15 09:20 LGSR 150920Z 33015KT CAVOK 29/20 Q1007
LGKL - Kalamata-Elev 8m
Απόσταση από σταθμό: Ν 405km
Ενημερώθηκε: 15/07/2024 12:20
Διάσπαρτα Νέφη
Διάσπαρτα Νέφη
 Ανεμοι από Ν
Ανεμος: Ν 17 km/h
Θερμοκρασία: 33°C
Δείκτης Δυσφορίας: 35°C
Σημείο Δρόσου: 20°C
Υγρασία: 46%
Βαρόμετρο: 1008 hPa
Νέφωση: Διάσπαρτα Νέφη
Ορατότητα: 10 km
Λεπτομέρειες Νεφών: Διάσπαρτα Νέφη 914 m
2024/07/15 09:20 LGKL 150920Z 17009KT 9999 FEW030 33/20 Q1008
 
LGIR - Iraklion/Crete-Elev 5m
Απόσταση από σταθμό: ΝΝΑ 622km
Ενημερώθηκε: 15/07/2024 12:20
Αίθριος
Αίθριος
 Ανεμοι από ΔΒΔ
Ανεμος: ΔΒΔ 37 km/h
Θερμοκρασία: 30°C
Δείκτης Δυσφορίας: 31°C
Σημείο Δρόσου: 18°C
Υγρασία: 49%
Βαρόμετρο: 1008 hPa
Περίληψη: Αίθριος
Ορατότητα: πάνω από 10 km
2024/07/15 09:20 LGIR 150920Z 30020KT CAVOK 30/18 Q1008 NOSIG
LGRP - Rhodes-Elev 5m
Απόσταση από σταθμό: ΝΑ 649km
Ενημερώθηκε: 15/07/2024 12:20
Αίθριος
Αίθριος
 Ανεμοι από ΔΝΔ
Ανεμος: ΔΝΔ 19 km/h
Θερμοκρασία: 32°C
Δείκτης Δυσφορίας: 36°C
Σημείο Δρόσου: 21°C
Υγρασία: 52%
Βαρόμετρο: 1002 hPa
Περίληψη: Αίθριος
Ορατότητα: πάνω από 10 km
2024/07/15 09:20 LGRP 150920Z 25010KT CAVOK 32/21 Q1002 NOSIG
 
LWOH - Ohrid/FYROM-Elev 761m
Απόσταση από σταθμό: ΔΒΔ 188km
Ενημερώθηκε: 15/07/2024 12:20
Αίθριος
Αίθριος
 Ανεμοι από ΝΝΑ
Ανεμος: ΝΝΑ 13 km/h
Θερμοκρασία: 27°C
Δείκτης Δυσφορίας: 29°C
Σημείο Δρόσου: 20°C
Υγρασία: 66%
Βαρόμετρο: 1016 hPa
Περίληψη: Αίθριος
Ορατότητα: πάνω από 10 km
2024/07/15 09:20 LWOH 150920Z 15007KT CAVOK 27/20 Q1016
LBSF - Sofia/Bulgaria-Elev 595m
Απόσταση από σταθμό: Β 227km
Ενημερώθηκε: 15/07/2024 12:30
Αίθριος
Αίθριος
 Ανεμοι από μεταβλητός
Ανεμος: μεταβλητός 7 km/h
Θερμοκρασία: 33°C
Σημείο Δρόσου: 11°C
Υγρασία: 26%
Βαρόμετρο: 1016 hPa
Περίληψη: Αίθριος
Ορατότητα: πάνω από 10 km
2024/07/15 09:30 LBSF 150930Z VRB04KT CAVOK 33/11 Q1016 NOSIG